Time;durP1;ratioP1;P1;durP2;ratioP2;P2;SDS_P1;SDS_P2;PMS_P1;PMS_P2;Temp;Humidity;BMP_temperature;BMP_pressure;BME280_temperature;BME280_humidity;BME280_pressure;Samples;Min_cycle;Max_cycle;Signal;HPM_P1;HPM_P2
2022/07/02 00:01:06;;;;;;;4.82;2.42;;;14.10;99.90;;;;;;5044900;28;20052;-78
2022/07/02 00:03:36;;;;;;;9.00;2.55;;;14.00;99.90;;;;;;5046134;28;20041;-78
2022/07/02 00:06:04;;;;;;;3.83;2.22;;;14.00;99.90;;;;;;5044926;28;20133;-77
2022/07/02 00:08:31;;;;;;;4.90;2.15;;;14.00;99.90;;;;;;5042572;28;20057;-77
2022/07/02 00:10:58;;;;;;;6.40;1.95;;;14.00;99.90;;;;;;5019953;28;20077;-78
2022/07/02 00:13:26;;;;;;;8.27;2.85;;;14.00;99.90;;;;;;5028358;28;20042;-78
2022/07/02 00:15:52;;;;;;;2.70;2.45;;;14.00;99.90;;;;;;5046841;28;20056;-79
2022/07/02 00:18:19;;;;;;;6.57;3.05;;;13.90;99.90;;;;;;5045726;28;20041;-78
2022/07/02 00:20:45;;;;;;;4.85;2.17;;;13.90;99.90;;;;;;5028383;28;20045;-78
2022/07/02 00:23:12;;;;;;;5.97;2.25;;;13.90;99.90;;;;;;5042451;28;20103;-80
2022/07/02 00:25:51;;;;;;;6.88;2.10;;;13.90;99.90;;;;;;5046416;28;20469;-78
2022/07/02 00:28:19;;;;;;;5.03;2.55;;;13.90;99.90;;;;;;5045392;28;20081;-79
2022/07/02 00:30:46;;;;;;;7.80;2.88;;;13.90;99.90;;;;;;5046872;28;20095;-78
2022/07/02 00:33:16;;;;;;;6.05;1.70;;;13.80;99.90;;;;;;5043184;28;20080;-78
2022/07/02 00:35:43;;;;;;;3.93;2.07;;;13.90;99.90;;;;;;5040494;28;20057;-79
2022/07/02 00:38:09;;;;;;;10.60;2.75;;;13.90;99.90;;;;;;5040436;28;20372;-78
2022/07/02 00:40:36;;;;;;;9.07;2.20;;;13.80;99.90;;;;;;5037175;28;20133;-78
2022/07/02 00:43:02;;;;;;;4.43;2.05;;;13.80;99.90;;;;;;5026357;28;20046;-79
2022/07/02 00:45:28;;;;;;;12.32;2.78;;;13.80;99.90;;;;;;5044575;28;20090;-78
2022/07/02 00:47:55;;;;;;;6.68;2.45;;;13.70;99.90;;;;;;5044108;28;20094;-78
2022/07/02 00:50:24;;;;;;;7.18;2.60;;;13.70;99.90;;;;;;5043769;28;20076;-78
2022/07/02 00:52:50;;;;;;;7.75;2.10;;;13.80;99.90;;;;;;5045237;28;20514;-79
2022/07/02 00:55:17;;;;;;;3.83;1.60;;;13.70;99.90;;;;;;5046025;28;20542;-80
2022/07/02 00:57:45;;;;;;;8.02;2.38;;;13.60;99.90;;;;;;5035906;28;20076;-78
2022/07/02 01:00:15;;;;;;;4.63;2.10;;;13.60;99.90;;;;;;5042628;28;20044;-78
2022/07/02 01:02:46;;;;;;;7.15;2.85;;;13.60;99.90;;;;;;5045746;28;20403;-79
2022/07/02 01:05:16;;;;;;;;;;;13.70;99.90;;;;;;5041809;28;20098;-79
2022/07/02 01:10:16;;;;;;;7.55;2.30;;;13.60;99.90;;;;;;5035910;28;19966;-79
2022/07/02 01:10:48;;;;;;;6.00;2.22;;;13.60;99.90;;;;;;5034483;28;20052;-77
2022/07/02 01:13:14;;;;;;;6.53;2.53;;;13.60;99.90;;;;;;5045519;28;20091;-78
2022/07/02 01:15:40;;;;;;;4.88;2.47;;;13.60;99.90;;;;;;5043921;28;20044;-78
2022/07/02 01:18:07;;;;;;;8.18;3.30;;;13.50;99.90;;;;;;5045569;28;20033;-79
2022/07/02 01:20:33;;;;;;;6.80;2.85;;;13.50;99.90;;;;;;5045338;28;20029;-78
2022/07/02 01:22:58;;;;;;;8.93;3.35;;;13.50;99.90;;;;;;5040821;28;20127;-78
2022/07/02 01:25:24;;;;;;;4.10;2.72;;;13.40;99.90;;;;;;5042392;28;20055;-78
2022/07/02 01:27:49;;;;;;;9.00;3.72;;;13.30;99.90;;;;;;5044262;28;20170;-78
2022/07/02 01:30:15;;;;;;;4.65;2.90;;;13.40;99.90;;;;;;5044844;28;20337;-80
2022/07/02 01:32:41;;;;;;;6.78;3.17;;;13.30;99.90;;;;;;5043400;28;20037;-78
2022/07/02 01:35:11;;;;;;;9.05;4.05;;;13.40;99.90;;;;;;5041905;28;20052;-78
2022/07/02 01:37:40;;;;;;;5.50;3.72;;;13.30;99.90;;;;;;5022267;28;21734;-79
2022/07/02 01:40:07;;;;;;;7.15;3.67;;;13.30;99.90;;;;;;5042697;28;20061;-77
2022/07/02 01:42:33;;;;;;;7.80;3.47;;;13.40;99.90;;;;;;5043164;28;20040;-78
2022/07/02 01:44:59;;;;;;;7.80;4.30;;;13.40;99.90;;;;;;5045192;28;20541;-79
2022/07/02 01:47:25;;;;;;;7.70;4.05;;;13.30;99.90;;;;;;5057996;22;20076;-79
2022/07/02 01:49:50;;;;;;;5.97;3.83;;;13.30;99.90;;;;;;5054349;28;20053;-79
2022/07/02 01:52:16;;;;;;;5.13;3.20;;;13.30;99.90;;;;;;5062198;28;20044;-79
2022/07/02 01:54:44;;;;;;;5.68;3.97;;;13.20;99.90;;;;;;5057014;28;20041;-78
2022/07/02 01:57:10;;;;;;;7.10;4.03;;;13.20;99.90;;;;;;5055466;28;20040;-79
2022/07/02 01:59:36;;;;;;;7.63;4.03;;;13.30;99.90;;;;;;5064475;28;20131;-77
2022/07/02 02:02:03;;;;;;;11.05;5.78;;;13.20;99.90;;;;;;5058353;28;20566;-79
2022/07/02 02:04:29;;;;;;;8.60;5.15;;;13.20;99.90;;;;;;5064512;28;20114;-80
2022/07/02 02:06:54;;;;;;;9.10;5.50;;;13.20;99.90;;;;;;5065316;28;20466;-78
2022/07/02 02:09:20;;;;;;;11.63;4.45;;;13.20;99.90;;;;;;5063692;28;20402;-79
2022/07/02 02:11:46;;;;;;;13.15;4.85;;;13.20;99.90;;;;;;5062615;28;20052;-79
2022/07/02 02:14:12;;;;;;;8.65;5.15;;;13.20;99.90;;;;;;5066296;28;20041;-79
2022/07/02 02:16:38;;;;;;;7.63;4.68;;;13.20;99.90;;;;;;5063567;28;20123;-81
2022/07/02 02:19:05;;;;;;;10.07;4.15;;;13.20;99.90;;;;;;5063651;28;20080;-80
2022/07/02 02:21:30;;;;;;;10.88;4.53;;;13.20;99.90;;;;;;5065945;28;20079;-77
2022/07/02 02:23:57;;;;;;;9.13;5.10;;;13.30;99.90;;;;;;5062261;28;20656;-78
2022/07/02 02:26:24;;;;;;;8.27;6.00;;;13.20;99.90;;;;;;5065710;28;20072;-77
2022/07/02 02:28:50;;;;;;;13.02;5.65;;;13.20;99.90;;;;;;5063575;28;20471;-78
2022/07/02 02:31:16;;;;;;;9.15;4.50;;;13.20;99.90;;;;;;5064507;28;20046;-77
2022/07/02 02:33:41;;;;;;;11.95;6.05;;;13.20;99.90;;;;;;5065334;28;20582;-79
2022/07/02 02:36:08;;;;;;;11.52;5.68;;;13.20;99.90;;;;;;5065199;28;20114;-80
2022/07/02 02:38:36;;;;;;;6.50;5.38;;;13.20;99.90;;;;;;5061639;28;20093;-78
2022/07/02 02:41:05;;;;;;;8.85;5.05;;;13.20;99.90;;;;;;5060485;28;20131;-77
2022/07/02 02:43:34;;;;;;;13.20;5.63;;;13.20;99.90;;;;;;5063077;28;20099;-78
2022/07/02 02:46:00;;;;;;;11.23;6.47;;;13.10;99.90;;;;;;5054562;28;20124;-79
2022/07/02 02:48:27;;;;;;;7.28;4.40;;;13.20;99.90;;;;;;5046124;28;20518;-77
2022/07/02 02:50:52;;;;;;;9.55;4.63;;;13.20;99.90;;;;;;5063096;28;20052;-77
2022/07/02 02:53:18;;;;;;;11.52;5.90;;;13.20;99.90;;;;;;5064484;28;20033;-77
2022/07/02 02:55:44;;;;;;;13.80;5.05;;;13.10;99.90;;;;;;5062366;28;20120;-77
2022/07/02 02:58:09;;;;;;;7.93;4.65;;;13.10;99.90;;;;;;5061629;28;20060;-78
2022/07/02 03:00:35;;;;;;;14.63;5.38;;;13.10;99.90;;;;;;5063117;28;20086;-78
2022/07/02 03:03:01;;;;;;;6.72;3.65;;;13.10;99.90;;;;;;5062019;28;20047;-79
2022/07/02 03:05:26;;;;;;;8.07;3.95;;;13.10;99.90;;;;;;5062324;28;20673;-78
2022/07/02 03:07:52;;;;;;;9.57;4.25;;;13.00;99.90;;;;;;5063255;28;20039;-77
2022/07/02 03:10:18;;;;;;;7.18;3.72;;;13.00;99.90;;;;;;5064548;28;20040;-78
2022/07/02 03:12:44;;;;;;;8.48;4.03;;;13.10;99.90;;;;;;5058335;28;20040;-79
2022/07/02 03:15:10;;;;;;;8.25;4.10;;;13.00;99.90;;;;;;5057474;28;20085;-77
2022/07/02 03:17:35;;;;;;;6.78;3.65;;;13.10;99.90;;;;;;5064799;28;20087;-78
2022/07/02 03:20:01;;;;;;;5.07;3.72;;;13.10;99.90;;;;;;5079923;28;20037;-78
2022/07/02 03:22:27;;;;;;;7.38;3.67;;;13.10;99.90;;;;;;5061974;28;20512;-78
2022/07/02 03:24:52;;;;;;;6.82;3.55;;;13.10;99.90;;;;;;5062586;28;20057;-79
2022/07/02 03:27:18;;;;;;;11.70;4.70;;;13.10;99.90;;;;;;5062138;28;20474;-77
2022/07/02 03:29:44;;;;;;;10.35;3.65;;;13.20;99.90;;;;;;5063163;28;20136;-78
2022/07/02 03:32:09;;;;;;;16.02;4.40;;;13.10;99.90;;;;;;5066373;28;20186;-77
2022/07/02 03:34:35;;;;;;;13.50;4.57;;;13.10;99.90;;;;;;5067981;28;20047;-76
2022/07/02 03:37:00;;;;;;;11.70;4.10;;;13.20;99.90;;;;;;5067186;28;20047;-78
2022/07/02 03:39:26;;;;;;;12.82;4.50;;;13.20;99.90;;;;;;5065805;28;20048;-78
2022/07/02 03:41:52;;;;;;;9.82;3.70;;;13.20;99.90;;;;;;5061417;28;20048;-78
2022/07/02 03:44:17;;;;;;;12.05;3.97;;;13.20;99.90;;;;;;5069173;28;20401;-78
2022/07/02 03:46:43;;;;;;;7.78;3.58;;;13.20;99.90;;;;;;5067308;28;20055;-77
2022/07/02 03:49:09;;;;;;;6.30;3.63;;;13.20;99.90;;;;;;5066014;28;20067;-77
2022/07/02 03:51:34;;;;;;;9.45;3.63;;;13.20;99.90;;;;;;5066525;28;20055;-78
2022/07/02 03:54:00;;;;;;;9.07;4.32;;;13.20;99.90;;;;;;5067264;28;20044;-79
2022/07/02 03:56:26;;;;;;;7.95;3.78;;;13.20;99.90;;;;;;5065055;28;20044;-78
2022/07/02 03:58:51;;;;;;;13.65;4.05;;;13.20;99.90;;;;;;5065393;28;20044;-77
2022/07/02 04:01:17;;;;;;;9.10;4.57;;;13.20;99.90;;;;;;5068336;28;20036;-78
2022/07/02 04:03:43;;;;;;;8.57;4.15;;;13.30;99.90;;;;;;5046919;28;20050;-78
2022/07/02 04:06:08;;;;;;;12.23;3.85;;;13.30;99.90;;;;;;5066692;28;20043;-78
2022/07/02 04:08:34;;;;;;;9.02;4.63;;;13.30;99.90;;;;;;5064108;28;20032;-78
2022/07/02 04:11:00;;;;;;;7.10;3.65;;;13.30;99.90;;;;;;5066871;28;20504;-78
2022/07/02 04:13:25;;;;;;;18.70;4.63;;;13.40;99.90;;;;;;5073680;28;20047;-78
2022/07/02 04:15:51;;;;;;;7.53;5.03;;;13.60;99.90;;;;;;5058975;28;20410;-80
2022/07/02 04:18:18;;;;;;;8.38;4.15;;;13.70;99.90;;;;;;5066108;28;20041;-78
2022/07/02 04:20:44;;;;;;;8.63;3.95;;;13.70;99.90;;;;;;5064861;28;20526;-79
2022/07/02 04:23:10;;;;;;;11.15;4.72;;;13.70;99.90;;;;;;5067724;28;20062;-80
2022/07/02 04:25:37;;;;;;;7.72;4.18;;;13.70;99.90;;;;;;5066243;28;20491;-79
2022/07/02 04:28:03;;;;;;;9.23;4.97;;;13.60;99.90;;;;;;5063816;28;20056;-78
2022/07/02 04:30:29;;;;;;;8.60;4.70;;;13.70;99.90;;;;;;5067335;28;20040;-79
2022/07/02 04:32:55;;;;;;;10.57;4.20;;;14.10;99.90;;;;;;5065378;28;20410;-79
2022/07/02 04:35:20;;;;;;;9.65;4.15;;;15.00;99.90;;;;;;5066266;28;20384;-78
2022/07/02 04:37:46;;;;;;;10.05;3.70;;;14.80;99.90;;;;;;5065941;28;20040;-78
2022/07/02 04:40:12;;;;;;;7.20;4.20;;;15.10;99.90;;;;;;5062185;28;20048;-78
2022/07/02 04:42:38;;;;;;;9.50;4.82;;;15.20;99.90;;;;;;5061157;28;20418;-77
2022/07/02 04:45:04;;;;;;;10.38;4.20;;;14.80;99.90;;;;;;5064289;28;20040;-77
2022/07/02 04:47:30;;;;;;;7.57;3.15;;;14.60;99.90;;;;;;5065146;28;20063;-78
2022/07/02 04:49:56;;;;;;;12.68;4.63;;;14.80;99.90;;;;;;5064782;28;20048;-78
2022/07/02 04:52:21;;;;;;;6.70;3.58;;;15.30;99.90;;;;;;5062727;28;20071;-78
2022/07/02 04:54:47;;;;;;;23.33;4.63;;;15.20;99.90;;;;;;5065511;28;20368;-77
2022/07/02 04:57:13;;;;;;;11.48;4.45;;;14.90;99.90;;;;;;5065025;28;20036;-77
2022/07/02 04:59:38;;;;;;;7.35;3.50;;;14.80;99.90;;;;;;5063163;28;20048;-76
2022/07/02 05:02:04;;;;;;;10.40;4.00;;;14.80;99.90;;;;;;5066271;28;20112;-77
2022/07/02 05:04:30;;;;;;;8.10;4.55;;;14.60;99.90;;;;;;5046598;28;20044;-78
2022/07/02 05:06:56;;;;;;;9.35;4.45;;;14.60;99.90;;;;;;5068690;28;20029;-77
2022/07/02 05:09:23;;;;;;;7.63;4.68;;;14.70;99.90;;;;;;5063437;28;20119;-76
2022/07/02 05:11:49;;;;;;;6.78;5.10;;;14.80;99.90;;;;;;5063090;28;20048;-76
2022/07/02 05:14:14;;;;;;;7.60;4.85;;;14.70;99.90;;;;;;5066465;28;20090;-76
2022/07/02 05:16:40;;;;;;;12.45;5.72;;;14.80;99.90;;;;;;5073970;28;20043;-77
2022/07/02 05:19:06;;;;;;;7.15;5.05;;;14.70;99.90;;;;;;5069940;28;20479;-76
2022/07/02 05:21:31;;;;;;;7.38;5.50;;;14.70;99.90;;;;;;5066536;28;20035;-77
2022/07/02 05:23:57;;;;;;;11.40;5.78;;;14.70;99.90;;;;;;5065579;28;20079;-77
2022/07/02 05:26:23;;;;;;;11.63;4.93;;;14.80;99.90;;;;;;5065043;28;20060;-75
2022/07/02 05:28:50;;;;;;;9.65;5.70;;;14.80;99.90;;;;;;5062140;28;20052;-78
2022/07/02 05:31:16;;;;;;;7.53;5.13;;;14.80;99.90;;;;;;5067369;28;20055;-79
2022/07/02 05:33:41;;;;;;;7.53;4.93;;;14.90;99.90;;;;;;5070151;28;20048;-76
2022/07/02 05:36:07;;;;;;;6.32;4.47;;;14.90;99.90;;;;;;5067742;28;20055;-78
2022/07/02 05:38:33;;;;;;;6.43;5.00;;;14.90;99.90;;;;;;5069160;28;20040;-77
2022/07/02 05:40:58;;;;;;;8.32;5.00;;;14.90;99.90;;;;;;5066321;28;20136;-77
2022/07/02 05:43:24;;;;;;;8.35;5.53;;;15.00;99.90;;;;;;5066541;28;20379;-79
2022/07/02 05:45:49;;;;;;;8.73;4.68;;;15.20;99.90;;;;;;5067716;28;20043;-76
2022/07/02 05:48:16;;;;;;;6.32;4.93;;;15.30;99.90;;;;;;5066831;28;20599;-78
2022/07/02 05:50:42;;;;;;;9.57;5.55;;;15.30;99.90;;;;;;5068432;28;20056;-78
2022/07/02 05:53:07;;;;;;;10.05;5.18;;;15.30;99.90;;;;;;5065643;28;20043;-79
2022/07/02 05:55:33;;;;;;;6.95;4.55;;;15.30;99.90;;;;;;5063983;28;20060;-78
2022/07/02 05:57:59;;;;;;;13.38;5.07;;;15.40;99.90;;;;;;5064981;28;20033;-77
2022/07/02 06:00:24;;;;;;;10.98;4.47;;;15.50;99.90;;;;;;5064792;28;20056;-77
2022/07/02 06:02:50;;;;;;;9.73;4.82;;;15.40;99.90;;;;;;5064226;28;20044;-77
2022/07/02 06:08:00;;;;;;;9.00;4.22;;;15.50;99.90;;;;;;5045694;28;20392;-77
2022/07/02 06:10:25;;;;;;;6.88;3.67;;;15.60;99.90;;;;;;5045346;28;20167;-76
2022/07/02 06:12:53;;;;;;;7.68;3.97;;;15.60;99.90;;;;;;5065310;28;20044;-82
2022/07/02 06:15:20;;;;;;;9.07;4.00;;;15.70;99.90;;;;;;5063971;28;20080;-74
2022/07/02 06:17:46;;;;;;;6.22;3.35;;;15.70;99.90;;;;;;5064631;28;20087;-80
2022/07/02 06:20:13;;;;;;;12.32;5.13;;;15.80;99.90;;;;;;5065845;28;20098;-78
2022/07/02 06:22:39;;;;;;;6.43;3.53;;;15.90;99.90;;;;;;5065605;28;20040;-77
2022/07/02 06:25:06;;;;;;;8.13;3.80;;;15.90;99.90;;;;;;5042500;28;20049;-76
2022/07/02 06:27:34;;;;;;;6.38;3.03;;;15.90;99.90;;;;;;5043842;28;20051;-77
2022/07/02 06:30:06;;;;;;;14.00;4.20;;;16.00;99.90;;;;;;5061348;28;20048;-77
2022/07/02 06:32:32;;;;;;;8.55;3.25;;;16.10;99.90;;;;;;5064159;28;20098;-77
2022/07/02 06:34:58;;;;;;;5.70;2.63;;;16.10;99.90;;;;;;5063062;28;20044;-77
2022/07/02 06:37:24;;;;;;;7.03;3.30;;;16.20;99.90;;;;;;5064099;28;20047;-75
2022/07/02 06:39:50;;;;;;;8.48;2.75;;;16.20;99.90;;;;;;5065023;28;20049;-77
2022/07/02 06:42:19;;;;;;;5.85;3.97;;;16.30;99.90;;;;;;5063986;28;20052;-77
2022/07/02 06:44:46;;;;;;;12.02;3.08;;;16.40;99.90;;;;;;5063291;28;20116;-78
2022/07/02 06:47:13;;;;;;;6.00;2.45;;;16.50;99.90;;;;;;5062782;28;20049;-77
2022/07/02 06:49:39;;;;;;;5.88;3.10;;;16.40;99.90;;;;;;5064621;28;20079;-77
2022/07/02 06:52:06;;;;;;;6.38;2.85;;;16.50;99.90;;;;;;5064856;28;20045;-79
2022/07/02 06:54:32;;;;;;;3.70;3.15;;;17.00;99.90;;;;;;5062622;28;20076;-77
2022/07/02 06:56:57;;;;;;;6.80;2.92;;;17.30;99.90;;;;;;5061559;28;20044;-78
2022/07/02 06:59:23;;;;;;;6.38;2.88;;;18.20;99.90;;;;;;5063321;28;20033;-79
2022/07/02 07:01:49;;;;;;;5.05;2.67;;;18.60;99.90;;;;;;5063913;28;20040;-79
2022/07/02 07:04:14;;;;;;;5.85;1.85;;;19.30;99.90;;;;;;5071275;28;20044;-85
2022/07/02 07:06:44;;;;;;;6.25;2.63;;;19.80;99.90;;;;;;5075473;28;20398;-80
2022/07/02 07:09:10;;;;;;;4.28;1.60;;;20.60;99.90;;;;;;5067245;28;20059;-79
2022/07/02 07:11:36;;;;;;;4.55;1.60;;;21.20;99.90;;;;;;5067739;28;20037;-79
2022/07/02 07:14:01;;;;;;;4.72;1.92;;;21.60;99.90;;;;;;5066986;28;20040;-81
2022/07/02 07:16:27;;;;;;;6.35;2.00;;;21.70;99.90;;;;;;5066726;28;20079;-80
2022/07/02 07:21:21;;;;;;;6.38;2.88;;;21.90;99.90;;;;;;5069245;28;20075;-78
2022/07/02 07:23:47;;;;;;;4.40;2.03;;;22.00;99.90;;;;;;5067494;28;20040;-78
2022/07/02 07:26:12;;;;;;;6.75;2.20;;;22.50;99.90;;;;;;5065952;28;20048;-81
2022/07/02 07:28:38;;;;;;;5.68;2.88;;;22.00;99.90;;;;;;5067667;28;20047;-81
2022/07/02 07:31:04;;;;;;;4.85;1.40;;;22.20;99.90;;;;;;5067415;28;20036;-82
2022/07/02 07:33:29;;;;;;;9.10;2.10;;;22.50;99.90;;;;;;5062515;28;20041;-79
2022/07/02 07:35:57;;;;;;;5.68;1.33;;;22.70;99.90;;;;;;5066357;28;20403;-80
2022/07/02 07:38:23;;;;;;;6.13;1.40;;;22.90;99.90;;;;;;5066735;28;20052;-79
2022/07/02 07:40:48;;;;;;;5.00;1.40;;;22.70;99.90;;;;;;5066655;28;20040;-75
2022/07/02 07:43:14;;;;;;;7.20;2.47;;;23.40;99.90;;;;;;5065645;28;20079;-78
2022/07/02 07:45:40;;;;;;;5.43;1.55;;;23.10;99.90;;;;;;5065761;28;20048;-78
2022/07/02 07:48:05;;;;;;;3.75;1.45;;;23.30;99.90;;;;;;5055346;28;20053;-77
2022/07/02 07:50:31;;;;;;;5.55;1.10;;;23.40;99.90;;;;;;5049205;28;20044;-77
2022/07/02 07:52:57;;;;;;;3.63;1.25;;;23.10;99.90;;;;;;5064049;28;20032;-78
2022/07/02 07:55:22;;;;;;;5.40;1.00;;;21.80;99.90;;;;;;5067471;28;20045;-77
2022/07/02 07:57:49;;;;;;;5.82;1.63;;;21.10;99.90;;;;;;5065261;28;20064;-74
2022/07/02 08:00:15;;;;;;;6.05;3.10;;;20.70;99.90;;;;;;5068536;28;20162;-77
2022/07/02 08:02:41;;;;;;;3.30;1.15;;;20.70;99.90;;;;;;5065104;28;20083;-76
2022/07/02 08:05:07;;;;;;;5.47;1.48;;;20.20;99.90;;;;;;5067079;28;20076;-76
2022/07/02 08:07:40;;;;;;;3.78;1.00;;;20.00;99.90;;;;;;5063314;28;20486;-76
2022/07/02 08:10:08;;;;;;;4.78;1.48;;;20.00;99.90;;;;;;5029380;28;20048;-76
2022/07/02 08:12:33;;;;;;;2.50;0.70;;;20.20;99.90;;;;;;5054423;28;20076;-76
2022/07/02 08:14:59;;;;;;;4.80;1.35;;;20.10;99.90;;;;;;5065872;28;20083;-80
2022/07/02 08:17:26;;;;;;;4.80;1.83;;;20.20;99.90;;;;;;5068481;28;20402;-77
2022/07/02 08:19:52;;;;;;;6.03;1.15;;;20.10;99.90;;;;;;5066534;28;20056;-81
2022/07/02 08:22:19;;;;;;;3.10;0.90;;;20.20;99.90;;;;;;5067948;28;20121;-76
2022/07/02 08:24:45;;;;;;;3.78;1.02;;;20.20;99.90;;;;;;5065203;28;20040;-77
2022/07/02 08:27:11;;;;;;;4.68;1.10;;;20.20;99.90;;;;;;5065528;28;20079;-76
2022/07/02 08:29:36;;;;;;;2.08;0.57;;;20.20;99.90;;;;;;5059419;28;20080;-76
2022/07/02 08:32:04;;;;;;;4.05;0.90;;;20.30;99.90;;;;;;5060613;28;20048;-76
2022/07/02 08:34:30;;;;;;;3.15;0.80;;;20.30;99.90;;;;;;5064907;28;20120;-79
2022/07/02 08:36:56;;;;;;;3.03;0.70;;;20.50;99.90;;;;;;5063208;28;20051;-79
2022/07/02 08:39:22;;;;;;;6.63;1.42;;;20.60;99.90;;;;;;5064536;28;20037;-78
2022/07/02 08:41:49;;;;;;;7.20;1.10;;;20.70;99.90;;;;;;5079178;28;20044;-79
2022/07/02 08:44:16;;;;;;;2.95;1.00;;;20.80;99.90;;;;;;5066375;28;20047;-79
2022/07/02 08:46:45;;;;;;;1.48;0.50;;;21.10;99.90;;;;;;5064267;28;20053;-80
2022/07/02 08:49:11;;;;;;;15.20;2.13;;;21.20;99.90;;;;;;5066630;28;20510;-78
2022/07/02 08:51:37;;;;;;;2.13;0.85;;;21.30;99.90;;;;;;5065948;28;20159;-80
2022/07/02 08:54:03;;;;;;;2.92;0.80;;;21.20;99.90;;;;;;5060507;28;20175;-79
2022/07/02 08:56:31;;;;;;;1.88;0.90;;;21.20;99.90;;;;;;5063154;28;20041;-78
2022/07/02 08:58:57;;;;;;;4.22;0.90;;;21.00;99.90;;;;;;5063653;28;20423;-79
2022/07/02 09:01:24;;;;;;;3.28;1.02;;;21.10;99.90;;;;;;5063064;28;20052;-79
2022/07/02 09:03:52;;;;;;;2.45;0.75;;;21.30;99.90;;;;;;5068494;28;20046;-80
2022/07/02 09:06:22;;;;;;;5.38;0.73;;;21.30;99.90;;;;;;5070802;28;20047;-79
2022/07/02 09:08:47;;;;;;;0.87;0.50;;;21.40;99.90;;;;;;5076725;28;20058;-79
2022/07/02 09:11:14;;;;;;;4.13;1.30;;;21.50;99.90;;;;;;5064948;28;20164;-78
2022/07/02 09:13:40;;;;;;;2.70;0.85;;;21.50;99.90;;;;;;5066049;28;20092;-78
2022/07/02 09:16:06;;;;;;;3.53;1.25;;;21.60;99.90;;;;;;5066193;28;20123;-80
2022/07/02 09:18:33;;;;;;;2.97;0.57;;;21.60;99.90;;;;;;5062589;28;20051;-80
2022/07/02 09:20:58;;;;;;;1.70;0.50;;;21.30;99.90;;;;;;5064838;28;20102;-79
2022/07/02 09:23:24;;;;;;;2.28;0.82;;;21.20;99.90;;;;;;5065201;28;20044;-81
2022/07/02 09:25:51;;;;;;;2.53;0.55;;;21.10;99.90;;;;;;5063862;28;20036;-79
2022/07/02 09:28:17;;;;;;;1.95;0.45;;;21.20;99.90;;;;;;5064135;28;20083;-79
2022/07/02 09:30:43;;;;;;;7.38;0.75;;;21.40;99.90;;;;;;5069308;28;20033;-84
2022/07/02 09:33:35;;;;;;;3.88;1.10;;;21.40;99.90;;;;;;5065681;28;20056;-79
2022/07/02 09:36:12;;;;;;;1.85;0.32;;;21.70;99.90;;;;;;5066517;28;20040;-81
2022/07/02 09:38:45;;;;;;;1.38;0.63;;;21.10;99.90;;;;;;5069411;28;20036;-78
2022/07/02 09:41:13;;;;;;;2.75;0.55;;;21.30;99.90;;;;;;5065198;28;20053;-78
2022/07/02 09:43:40;;;;;;;3.33;0.70;;;21.60;99.90;;;;;;5064635;28;20040;-80
2022/07/02 09:46:17;;;;;;;1.60;0.70;;;21.80;99.90;;;;;;5056807;28;20050;-76
2022/07/02 09:48:44;;;;;;;3.50;0.75;;;21.90;99.90;;;;;;5061782;28;20044;-76
2022/07/02 09:51:09;;;;;;;2.30;0.55;;;21.90;99.90;;;;;;5065519;28;20071;-75
2022/07/02 09:53:45;;;;;;;2.92;0.60;;;21.90;99.90;;;;;;5065761;28;20032;-76
2022/07/02 09:56:11;;;;;;;1.08;0.40;;;21.90;99.90;;;;;;5061669;28;20048;-75
2022/07/02 09:58:37;;;;;;;1.50;0.30;;;21.90;99.90;;;;;;5063063;28;20124;-77
2022/07/02 10:01:04;;;;;;;3.00;0.50;;;21.70;99.90;;;;;;5058340;28;20055;-77
2022/07/02 10:03:30;;;;;;;2.80;0.63;;;21.70;99.90;;;;;;5060170;28;20043;-75
2022/07/02 10:05:56;;;;;;;1.85;0.50;;;21.60;99.90;;;;;;5042666;28;20123;-75
2022/07/02 10:08:22;;;;;;;1.92;0.50;;;21.90;99.90;;;;;;5063989;28;20083;-77
2022/07/02 10:10:49;;;;;;;2.10;0.40;;;21.80;99.90;;;;;;5066204;28;20054;-75
2022/07/02 10:13:17;;;;;;;2.70;0.73;;;21.90;99.90;;;;;;5065048;28;20813;-78
2022/07/02 10:15:52;;;;;;;1.10;0.30;;;21.90;99.90;;;;;;5064795;28;20055;-78
2022/07/02 10:18:19;;;;;;;1.77;0.40;;;22.10;99.90;;;;;;5064420;28;20051;-76
2022/07/02 10:20:45;;;;;;;5.32;0.82;;;22.10;99.90;;;;;;5064162;28;20047;-79
2022/07/02 10:23:12;;;;;;;1.65;0.43;;;21.80;99.90;;;;;;5065187;28;20434;-78
2022/07/02 10:25:39;;;;;;;2.78;0.68;;;21.80;99.90;;;;;;5064663;28;20547;-80
2022/07/02 10:28:05;;;;;;;1.75;0.32;;;21.80;99.90;;;;;;5064250;28;20049;-79
2022/07/02 10:30:32;;;;;;;1.75;0.30;;;22.10;99.90;;;;;;5063969;28;20176;-78
2022/07/02 10:33:14;;;;;;;4.03;0.60;;;22.00;99.90;;;;;;5061070;28;20037;-80
2022/07/02 10:35:42;;;;;;;3.35;0.45;;;21.40;99.90;;;;;;5062991;28;20036;-80
2022/07/02 10:38:08;;;;;;;1.65;1.00;;;21.60;99.90;;;;;;5064511;28;20059;-79
2022/07/02 10:40:47;;;;;;;0.73;0.28;;;21.50;99.90;;;;;;5083784;28;20048;-78
2022/07/02 10:43:17;;;;;;;0.65;0.43;;;21.10;99.90;;;;;;5067643;28;20483;-78
2022/07/02 10:45:43;;;;;;;;;;;21.10;99.90;;;;;;5067232;28;20108;-79
2022/07/02 10:48:11;;;;;;;1.02;0.22;;;21.10;99.90;;;;;;5063329;28;22770;-79
2022/07/02 10:50:37;;;;;;;1.75;0.50;;;21.70;99.90;;;;;;5069133;28;20131;-79
2022/07/02 10:53:13;;;;;;;3.55;1.15;;;22.00;99.90;;;;;;5068613;28;20101;-78
2022/07/02 10:55:41;;;;;;;3.75;0.73;;;22.10;99.90;;;;;;5065440;28;20048;-79
2022/07/02 10:58:17;;;;;;;2.30;0.47;;;21.60;99.90;;;;;;5067101;28;20048;-76
2022/07/02 11:00:42;;;;;;;0.50;0.17;;;21.40;99.90;;;;;;5084153;28;20596;-79
2022/07/02 11:03:18;;;;;;;3.13;0.30;;;22.00;99.90;;;;;;5065833;28;20040;-79
2022/07/02 11:06:00;;;;;;;2.70;0.50;;;21.80;99.90;;;;;;5064358;28;20056;-79
2022/07/02 11:08:43;;;;;;;2.13;0.50;;;21.40;99.90;;;;;;5063632;28;20052;-79
2022/07/02 11:11:17;;;;;;;2.70;0.40;;;21.90;99.90;;;;;;5065836;28;20052;-80
2022/07/02 11:13:58;;;;;;;3.28;0.70;;;22.30;99.90;;;;;;5068715;28;20123;-79
2022/07/02 11:16:29;;;;;;;0.77;0.50;;;22.40;99.90;;;;;;5067495;28;20502;-78
2022/07/02 11:18:58;;;;;;;2.78;0.55;;;22.30;99.90;;;;;;5048246;28;20048;-80
2022/07/02 11:21:25;;;;;;;2.00;1.10;;;22.10;99.90;;;;;;5050842;28;20035;-80
2022/07/02 11:23:52;;;;;;;2.00;0.47;;;21.80;99.90;;;;;;5068265;28;20732;-77
2022/07/02 11:26:23;;;;;;;5.10;1.35;;;22.10;99.90;;;;;;5063629;28;20055;-76
2022/07/02 11:28:49;;;;;;;1.20;0.40;;;22.40;99.90;;;;;;5068208;28;20479;-77
2022/07/02 11:31:17;;;;;;;3.53;0.95;;;22.60;99.90;;;;;;5065329;28;20525;-81
2022/07/02 11:33:51;;;;;;;0.73;0.30;;;22.80;99.90;;;;;;5048471;28;20041;-79
2022/07/02 11:36:17;;;;;;;2.45;0.28;;;22.70;99.90;;;;;;5052900;28;20089;-79
2022/07/02 11:38:45;;;;;;;2.15;0.30;;;22.60;99.90;;;;;;5065848;28;20056;-72
2022/07/02 11:41:33;;;;;;;0.90;0.22;;;22.80;99.90;;;;;;5063922;28;20472;-80
2022/07/02 11:44:00;;;;;;;0.90;0.30;;;22.40;99.90;;;;;;5067241;28;20094;-78
2022/07/02 11:46:28;;;;;;;2.80;0.63;;;22.00;99.90;;;;;;5068194;28;20049;-78
2022/07/02 11:48:56;;;;;;;1.50;0.40;;;21.90;99.90;;;;;;5067690;28;20109;-76
2022/07/02 11:51:21;;;;;;;1.23;0.40;;;22.10;99.90;;;;;;5045751;28;20048;-78
2022/07/02 11:54:02;;;;;;;0.93;0.30;;;22.10;99.90;;;;;;5067181;28;20048;-78
2022/07/02 11:56:31;;;;;;;1.75;0.52;;;22.00;99.90;;;;;;5066616;28;20052;-80
2022/07/02 11:58:57;;;;;;;6.38;0.93;;;22.30;99.90;;;;;;5066743;28;20045;-86
2022/07/02 12:01:25;;;;;;;2.58;0.50;;;22.00;99.90;;;;;;5047914;28;20600;-87
2022/07/02 12:04:02;;;;;;;0.63;0.38;;;21.70;99.90;;;;;;5083202;28;20045;-84
2022/07/02 12:06:33;;;;;;;2.55;0.52;;;21.90;99.90;;;;;;5066897;28;20084;-85
2022/07/02 12:09:00;;;;;;;1.88;0.73;;;22.30;99.90;;;;;;5065626;28;20041;-82
2022/07/02 12:11:26;;;;;;;3.08;0.82;;;22.40;99.90;;;;;;5061121;28;20484;-79
2022/07/02 12:13:54;;;;;;;2.22;0.38;;;22.70;99.90;;;;;;5068357;28;20036;-81
2022/07/02 12:16:24;;;;;;;2.10;0.60;;;23.00;99.90;;;;;;5058727;28;20040;-80
2022/07/02 12:19:02;;;;;;;;;;;23.00;99.90;;;;;;5063467;28;20098;-79
2022/07/02 12:21:38;;;;;;;2.88;0.75;;;23.10;99.90;;;;;;5067465;28;19923;-79
2022/07/02 12:24:31;;;;;;;4.63;0.50;;;23.40;99.90;;;;;;5065474;28;20041;-78
2022/07/02 12:27:02;;;;;;;1.13;0.28;;;22.90;99.90;;;;;;5061589;28;20044;-82
2022/07/02 12:32:17;;;;;;;1.52;0.50;;;22.60;99.90;;;;;;5060373;28;20048;-82
2022/07/02 12:34:43;;;;;;;1.45;0.38;;;23.00;99.90;;;;;;5063346;28;20036;-79
2022/07/02 12:37:51;;;;;;;1.13;0.40;;;23.40;99.90;;;;;;5063566;28;20585;-80
2022/07/02 12:40:21;;;;;;;2.25;0.50;;;23.70;99.90;;;;;;5063786;28;20059;-79
2022/07/02 12:42:49;;;;;;;0.77;0.40;;;23.90;99.90;;;;;;5065402;28;20048;-80
2022/07/02 12:45:28;;;;;;;2.13;0.70;;;23.60;99.90;;;;;;5064960;28;20049;-79
2022/07/02 12:48:14;;;;;;;2.10;0.83;;;23.00;99.90;;;;;;5065145;28;20052;-78
2022/07/02 12:50:42;;;;;;;2.92;0.35;;;22.70;99.90;;;;;;5045843;28;20146;-78
2022/07/02 12:53:10;;;;;;;1.00;0.28;;;22.70;99.90;;;;;;5053284;28;20063;-80
2022/07/02 12:55:43;;;;;;;1.95;0.63;;;22.60;99.90;;;;;;5062196;28;20252;-80